createdAt,value
2023-02-28T00:01:07.138Z,100691.06
2023-02-28T00:03:36.500Z,100686.19
2023-02-28T00:06:05.680Z,100693.72
2023-02-28T00:08:32.735Z,100691.69
2023-02-28T00:11:08.561Z,100691.38
2023-02-28T00:13:38.565Z,100688.72
2023-02-28T00:16:11.438Z,100695.16
2023-02-28T00:18:39.045Z,100690.09
2023-02-28T00:21:06.514Z,100689.16
2023-02-28T00:23:33.918Z,100696.44
2023-02-28T00:26:00.772Z,100693.03
2023-02-28T00:28:27.883Z,100699.06
2023-02-28T00:30:54.770Z,100694.94
2023-02-28T00:33:22.202Z,100691.56
2023-02-28T00:35:49.959Z,100692.19
2023-02-28T00:38:19.293Z,100691.84
2023-02-28T00:40:46.104Z,100693.03
2023-02-28T00:43:15.292Z,100698.72
2023-02-28T00:45:42.948Z,100687.75
2023-02-28T00:48:10.006Z,100687.44
2023-02-28T00:50:37.293Z,100685.63
2023-02-28T00:53:03.952Z,100693.13
2023-02-28T00:55:31.122Z,100684.38
2023-02-28T00:57:57.825Z,100688.81
2023-02-28T01:00:24.568Z,100684.28
2023-02-28T01:02:51.250Z,100686.69
2023-02-28T01:05:18.038Z,100688.56
2023-02-28T01:07:48.427Z,100695.56
2023-02-28T01:10:15.162Z,100690.75
2023-02-28T01:12:43.136Z,100687.72
2023-02-28T01:15:12.484Z,100689.28
2023-02-28T01:17:39.240Z,100683.25
2023-02-28T01:20:06.782Z,100677.19
2023-02-28T01:22:33.465Z,100684.53
2023-02-28T01:25:00.441Z,100671.34
2023-02-28T01:27:27.744Z,100670.06
2023-02-28T01:29:54.396Z,100669.34
2023-02-28T01:32:21.304Z,100676.53
2023-02-28T01:34:47.997Z,100668.53
2023-02-28T01:37:14.644Z,100663.69
2023-02-28T01:42:06.930Z,100657.75
2023-02-28T01:44:42.657Z,100666.38
2023-02-28T01:47:09.459Z,100655.69
2023-02-28T01:49:36.134Z,100653.28
2023-02-28T01:52:03.425Z,100659.53
2023-02-28T01:54:34.828Z,100653.94
2023-02-28T01:57:12.871Z,100651.00
2023-02-28T01:59:49.970Z,100651.00
2023-02-28T02:02:18.854Z,100639.81
2023-02-28T02:04:56.456Z,100647.16
2023-02-28T02:07:24.578Z,100644.34
2023-02-28T02:09:51.364Z,100648.84
2023-02-28T02:12:31.757Z,100642.75
2023-02-28T02:15:14.129Z,100635.16
2023-02-28T02:17:41.667Z,100645.88
2023-02-28T02:20:39.335Z,100636.63
2023-02-28T02:23:42.639Z,100641.16
2023-02-28T02:26:12.245Z,100638.72
2023-02-28T02:28:43.696Z,100628.78
2023-02-28T02:31:42.757Z,100631.16
2023-02-28T02:34:27.469Z,100628.56
2023-02-28T02:37:32.426Z,100626.41
2023-02-28T02:40:01.851Z,100634.50
2023-02-28T02:42:42.612Z,100636.34
2023-02-28T02:45:16.908Z,100634.66
2023-02-28T02:47:45.376Z,100637.34
2023-02-28T02:50:38.774Z,100633.53
2023-02-28T02:53:08.462Z,100634.13
2023-02-28T02:55:42.606Z,100640.81
2023-02-28T02:58:15.166Z,100641.63
2023-02-28T03:00:42.705Z,100633.97
2023-02-28T03:03:12.176Z,100632.97
2023-02-28T03:05:42.636Z,100637.53
2023-02-28T03:08:09.346Z,100639.56
2023-02-28T03:10:41.721Z,100644.09
2023-02-28T03:13:26.552Z,100647.09
2023-02-28T03:16:07.199Z,100640.53
2023-02-28T03:18:42.692Z,100634.91
2023-02-28T03:21:24.970Z,100640.91
2023-02-28T03:23:55.704Z,100640.25
2023-02-28T03:26:28.330Z,100632.91
2023-02-28T03:29:06.650Z,100639.66
2023-02-28T03:31:39.165Z,100636.47
2023-02-28T03:34:19.738Z,100639.19
2023-02-28T03:36:52.867Z,100637.34
2023-02-28T03:39:28.109Z,100631.13
2023-02-28T03:42:03.266Z,100634.69
2023-02-28T03:44:36.734Z,100637.03
2023-02-28T03:47:15.950Z,100635.16
2023-02-28T03:50:00.855Z,100631.97
2023-02-28T03:52:33.686Z,100635.53
2023-02-28T03:55:07.630Z,100648.81
2023-02-28T03:57:41.822Z,100647.06
2023-02-28T04:00:15.535Z,100645.91
2023-02-28T04:02:42.484Z,100646.88
2023-02-28T04:05:09.530Z,100639.16
2023-02-28T04:07:36.773Z,100643.69
2023-02-28T04:10:05.091Z,100655.34
2023-02-28T04:12:31.827Z,100653.47
2023-02-28T04:14:58.626Z,100656.22
2023-02-28T04:17:25.566Z,100646.94
2023-02-28T04:19:52.565Z,100650.41
2023-02-28T04:22:19.477Z,100651.97
2023-02-28T04:24:46.667Z,100652.16
2023-02-28T04:27:16.593Z,100648.22
2023-02-28T04:29:45.681Z,100643.84
2023-02-28T04:32:14.094Z,100648.56
2023-02-28T04:37:13.625Z,100636.69
2023-02-28T04:39:42.927Z,100647.75
2023-02-28T04:42:10.951Z,100651.34
2023-02-28T04:44:37.744Z,100647.47
2023-02-28T04:47:04.556Z,100649.84
2023-02-28T04:49:31.191Z,100644.81
2023-02-28T04:51:57.944Z,100641.75
2023-02-28T04:54:24.640Z,100642.50
2023-02-28T04:56:51.460Z,100640.44
2023-02-28T04:59:18.596Z,100644.09
2023-02-28T05:01:49.906Z,100642.69
2023-02-28T05:04:17.203Z,100644.97
2023-02-28T05:06:44.124Z,100637.78
2023-02-28T05:09:14.426Z,100647.69
2023-02-28T05:11:43.035Z,100643.81
2023-02-28T05:14:15.197Z,100649.28
2023-02-28T05:16:43.195Z,100652.47
2023-02-28T05:19:10.147Z,100647.69
2023-02-28T05:21:40.163Z,100645.97
2023-02-28T05:24:13.556Z,100649.09
2023-02-28T05:26:42.694Z,100654.00
2023-02-28T05:29:10.295Z,100653.88
2023-02-28T05:31:37.588Z,100657.84
2023-02-28T05:34:07.303Z,100663.31
2023-02-28T05:36:34.910Z,100660.72
2023-02-28T05:39:01.742Z,100664.44
2023-02-28T05:41:29.033Z,100666.00
2023-02-28T05:43:56.040Z,100674.66
2023-02-28T05:46:23.454Z,100671.22
2023-02-28T05:48:50.544Z,100674.50
2023-02-28T05:51:17.927Z,100675.09
2023-02-28T05:53:44.688Z,100670.56
2023-02-28T05:56:12.457Z,100669.78
2023-02-28T05:58:39.260Z,100672.16
2023-02-28T06:01:29.893Z,100674.03
2023-02-28T06:03:56.936Z,100681.91
2023-02-28T06:06:23.625Z,100682.34
2023-02-28T06:08:50.441Z,100679.50
2023-02-28T06:11:17.214Z,100690.09
2023-02-28T06:13:43.954Z,100690.25
2023-02-28T06:16:12.417Z,100690.03
2023-02-28T06:18:39.576Z,100700.47
2023-02-28T06:21:06.931Z,100694.25
2023-02-28T06:23:34.225Z,100702.88
2023-02-28T06:26:01.245Z,100688.53
2023-02-28T06:28:28.517Z,100688.31
2023-02-28T06:30:55.357Z,100697.75
2023-02-28T06:33:22.125Z,100700.59
2023-02-28T06:35:52.158Z,100706.22
2023-02-28T06:38:19.389Z,100711.13
2023-02-28T06:40:46.217Z,100708.66
2023-02-28T06:43:16.037Z,100700.69
2023-02-28T06:45:44.603Z,100713.78
2023-02-28T06:48:11.747Z,100715.13
2023-02-28T06:53:07.428Z,100718.09
2023-02-28T06:55:34.298Z,100721.94
2023-02-28T06:58:01.183Z,100720.06
2023-02-28T07:00:27.949Z,100730.03
2023-02-28T07:02:56.232Z,100726.72
2023-02-28T07:05:23.163Z,100734.19
2023-02-28T07:07:49.897Z,100727.38
2023-02-28T07:10:20.188Z,100723.41
2023-02-28T07:12:47.201Z,100727.75
2023-02-28T07:15:13.978Z,100725.94
2023-02-28T07:20:07.662Z,100730.53
2023-02-28T07:22:34.320Z,100733.16
2023-02-28T07:25:01.058Z,100727.69
2023-02-28T07:27:27.798Z,100730.41
2023-02-28T07:29:55.806Z,100725.78
2023-02-28T07:32:22.723Z,100728.53
2023-02-28T07:34:49.726Z,100727.91
2023-02-28T07:37:16.612Z,100723.38
2023-02-28T07:39:43.626Z,100727.41
2023-02-28T07:42:13.475Z,100721.81
2023-02-28T07:47:11.154Z,100726.94
2023-02-28T07:49:38.154Z,100737.53
2023-02-28T07:52:06.890Z,100732.66
2023-02-28T07:54:34.534Z,100734.00
2023-02-28T07:57:01.193Z,100728.72
2023-02-28T07:59:28.097Z,100734.22
2023-02-28T08:01:59.251Z,100730.63
2023-02-28T08:04:26.618Z,100733.31
2023-02-28T08:06:54.186Z,100725.06
2023-02-28T08:09:20.989Z,100728.38
2023-02-28T08:11:47.663Z,100727.72
2023-02-28T08:14:14.896Z,100722.13
2023-02-28T08:19:07.313Z,100732.47
2023-02-28T08:21:34.192Z,100732.78
2023-02-28T08:24:00.892Z,100730.88
2023-02-28T08:26:27.759Z,100736.41
2023-02-28T08:28:56.176Z,100734.03
2023-02-28T08:31:24.280Z,100732.06
2023-02-28T08:33:52.994Z,100730.53
2023-02-28T08:36:21.515Z,100730.31
2023-02-28T08:38:48.301Z,100729.22
2023-02-28T08:41:15.037Z,100725.75
2023-02-28T08:43:42.946Z,100736.09
2023-02-28T08:46:13.616Z,100726.25
2023-02-28T08:51:13.212Z,100720.25
2023-02-28T08:56:11.848Z,100721.78
2023-02-28T08:58:39.251Z,100732.28
2023-02-28T09:01:14.321Z,100718.97
2023-02-28T09:03:42.934Z,100723.31
2023-02-28T09:06:11.299Z,100720.06
2023-02-28T09:08:38.444Z,100733.69
2023-02-28T09:11:05.983Z,100719.44
2023-02-28T09:13:36.204Z,100720.47
2023-02-28T09:16:05.110Z,100714.94
2023-02-28T09:18:31.921Z,100714.94
2023-02-28T09:20:58.973Z,100726.91
2023-02-28T09:23:26.042Z,100714.94
2023-02-28T09:25:55.130Z,100712.72
2023-02-28T09:28:22.648Z,100719.16
2023-02-28T09:30:52.018Z,100718.31
2023-02-28T09:33:21.856Z,100713.97
2023-02-28T09:35:49.622Z,100717.94
2023-02-28T09:38:16.452Z,100727.72
2023-02-28T09:40:54.794Z,100714.94
2023-02-28T09:43:25.121Z,100723.91
2023-02-28T09:46:16.944Z,100720.44
2023-02-28T09:48:48.106Z,100721.59
2023-02-28T09:51:36.813Z,100719.88
2023-02-28T09:54:03.981Z,100734.13
2023-02-28T09:56:42.882Z,100724.34
2023-02-28T10:02:22.483Z,100722.34
2023-02-28T10:04:56.468Z,100731.19
2023-02-28T10:07:35.291Z,100723.38
2023-02-28T10:10:10.036Z,100724.84
2023-02-28T10:15:15.602Z,100726.13
2023-02-28T10:17:55.249Z,100730.19
2023-02-28T10:20:31.017Z,100725.50
2023-02-28T10:23:18.041Z,100723.97
2023-02-28T10:25:51.316Z,100721.91
2023-02-28T10:28:19.217Z,100719.06
2023-02-28T10:30:51.120Z,100719.19
2023-02-28T10:33:25.275Z,100722.16
2023-02-28T10:35:53.165Z,100718.84
2023-02-28T10:38:25.898Z,100725.41
2023-02-28T10:41:04.015Z,100717.81
2023-02-28T10:43:31.026Z,100723.44
2023-02-28T10:46:27.008Z,100725.13
2023-02-28T10:49:06.695Z,100717.09
2023-02-28T10:51:38.799Z,100716.19
2023-02-28T10:54:06.321Z,100716.19
2023-02-28T10:56:34.220Z,100722.88
2023-02-28T10:59:31.970Z,100710.66
2023-02-28T11:01:58.824Z,100716.84
2023-02-28T11:04:33.561Z,100722.47
2023-02-28T11:07:07.451Z,100719.06
2023-02-28T11:09:39.893Z,100714.81
2023-02-28T11:12:47.032Z,100723.28
2023-02-28T11:15:15.806Z,100723.13
2023-02-28T11:17:43.814Z,100716.13
2023-02-28T11:20:22.004Z,100724.66
2023-02-28T11:22:48.967Z,100715.59
2023-02-28T11:25:43.007Z,100718.13
2023-02-28T11:28:27.609Z,100719.22
2023-02-28T11:31:20.686Z,100714.56
2023-02-28T11:33:56.843Z,100720.25
2023-02-28T11:36:30.399Z,100722.19
2023-02-28T11:39:04.709Z,100727.81
2023-02-28T11:41:41.475Z,100714.59
2023-02-28T11:44:18.160Z,100718.09
2023-02-28T11:46:51.523Z,100729.59
2023-02-28T11:49:28.018Z,100714.03
2023-02-28T11:52:04.242Z,100711.25
2023-02-28T11:54:41.973Z,100715.41
2023-02-28T11:57:33.917Z,100704.69
2023-02-28T12:00:05.966Z,100714.25
2023-02-28T12:02:38.356Z,100715.16
2023-02-28T12:05:17.204Z,100706.41
2023-02-28T12:08:07.271Z,100709.50
2023-02-28T12:10:42.952Z,100710.34
2023-02-28T12:13:29.706Z,100694.91
2023-02-28T12:16:16.395Z,100694.72
2023-02-28T12:18:55.064Z,100694.47
2023-02-28T12:21:43.207Z,100694.47
2023-02-28T12:24:24.970Z,100692.00
2023-02-28T12:26:53.166Z,100695.50
2023-02-28T12:29:43.714Z,100688.72
2023-02-28T12:32:23.287Z,100685.63
2023-02-28T12:35:00.013Z,100685.22
2023-02-28T12:37:36.828Z,100689.81
2023-02-28T12:40:12.169Z,100688.63
2023-02-28T12:42:41.982Z,100685.56
2023-02-28T12:45:14.660Z,100682.75
2023-02-28T12:47:42.094Z,100671.00
2023-02-28T12:50:12.852Z,100673.69
2023-02-28T12:52:42.012Z,100688.13
2023-02-28T12:55:35.856Z,100675.53
2023-02-28T12:58:29.000Z,100678.25
2023-02-28T13:01:29.257Z,100681.06
2023-02-28T13:04:19.323Z,100676.06
2023-02-28T13:07:18.148Z,100674.47
2023-02-28T13:09:58.506Z,100671.50
2023-02-28T13:12:25.704Z,100672.84
2023-02-28T13:15:23.246Z,100671.44
2023-02-28T13:17:56.148Z,100667.16
2023-02-28T13:20:37.447Z,100661.47
2023-02-28T13:23:06.529Z,100663.28
2023-02-28T13:25:39.197Z,100674.84
2023-02-28T13:28:12.001Z,100662.97
2023-02-28T13:30:41.985Z,100650.88
2023-02-28T13:33:30.559Z,100657.78
2023-02-28T13:36:33.548Z,100653.22
2023-02-28T13:39:25.087Z,100663.03
2023-02-28T13:41:51.824Z,100652.69
2023-02-28T13:44:27.981Z,100647.38
2023-02-28T13:46:54.613Z,100651.53
2023-02-28T13:49:24.364Z,100648.84
2023-02-28T13:51:53.394Z,100641.47
2023-02-28T13:57:21.892Z,100638.19
2023-02-28T14:00:26.429Z,100634.28
2023-02-28T14:03:43.090Z,100630.25
2023-02-28T14:06:28.280Z,100633.56
2023-02-28T14:09:20.901Z,100628.53
2023-02-28T14:11:47.898Z,100629.59
2023-02-28T14:14:37.661Z,100628.72
2023-02-28T14:17:10.699Z,100619.66
2023-02-28T14:19:40.374Z,100615.25
2023-02-28T14:25:35.808Z,100617.59
2023-02-28T14:28:08.691Z,100608.25
2023-02-28T14:30:43.095Z,100619.56
2023-02-28T14:33:19.992Z,100619.53
2023-02-28T14:36:04.759Z,100622.00
2023-02-28T14:41:21.820Z,100623.63
2023-02-28T14:43:57.869Z,100617.91
2023-02-28T14:46:30.186Z,100614.78
2023-02-28T14:48:57.078Z,100610.03
2023-02-28T14:51:25.419Z,100609.84
2023-02-28T14:53:58.365Z,100613.63
2023-02-28T14:56:29.437Z,100600.06
2023-02-28T14:58:59.440Z,100606.41
2023-02-28T15:01:30.401Z,100610.66
2023-02-28T15:04:04.286Z,100604.84
2023-02-28T15:06:31.711Z,100602.66
2023-02-28T15:09:09.786Z,100603.06
2023-02-28T15:11:37.371Z,100598.81
2023-02-28T15:14:16.351Z,100602.16
2023-02-28T15:16:45.797Z,100599.69
2023-02-28T15:19:25.471Z,100595.03
2023-02-28T15:22:01.553Z,100589.66
2023-02-28T15:24:43.479Z,100595.25
2023-02-28T15:27:33.588Z,100598.47
2023-02-28T15:30:06.414Z,100605.50
2023-02-28T15:32:36.117Z,100590.47
2023-02-28T15:35:27.146Z,100597.75
2023-02-28T15:37:58.086Z,100595.25
2023-02-28T15:40:29.297Z,100594.28
2023-02-28T15:43:15.258Z,100592.03
2023-02-28T15:45:42.265Z,100604.63
2023-02-28T15:48:29.714Z,100599.22
2023-02-28T15:51:21.268Z,100602.75
2023-02-28T15:54:03.791Z,100586.53
2023-02-28T15:56:39.583Z,100598.41
2023-02-28T15:59:15.034Z,100596.75
2023-02-28T16:04:16.861Z,100594.75
2023-02-28T16:06:58.777Z,100603.38
2023-02-28T16:09:25.823Z,100603.88
2023-02-28T16:11:56.291Z,100600.47
2023-02-28T16:14:26.176Z,100602.16
2023-02-28T16:16:58.342Z,100604.00
2023-02-28T16:19:25.165Z,100615.72
2023-02-28T16:21:52.555Z,100604.09
2023-02-28T16:24:19.475Z,100613.38
2023-02-28T16:26:52.705Z,100606.66
2023-02-28T16:29:38.503Z,100615.66
2023-02-28T16:32:06.677Z,100615.78
2023-02-28T16:34:33.592Z,100613.16
2023-02-28T16:37:01.584Z,100616.63
2023-02-28T16:39:29.222Z,100617.34
2023-02-28T16:41:57.371Z,100617.03
2023-02-28T16:44:34.446Z,100619.28
2023-02-28T16:47:02.958Z,100623.72
2023-02-28T16:49:30.423Z,100622.31
2023-02-28T16:51:57.400Z,100623.84
2023-02-28T16:54:24.185Z,100625.91
2023-02-28T16:56:51.472Z,100629.09
2023-02-28T16:59:23.506Z,100634.97
2023-02-28T17:01:51.166Z,100632.56
2023-02-28T17:04:18.520Z,100632.28
2023-02-28T17:06:45.603Z,100636.75
2023-02-28T17:09:18.397Z,100644.66
2023-02-28T17:11:48.549Z,100636.31
2023-02-28T17:14:16.491Z,100648.66
2023-02-28T17:16:44.029Z,100661.44
2023-02-28T17:19:16.513Z,100655.59
2023-02-28T17:21:44.488Z,100652.22
2023-02-28T17:24:22.167Z,100656.13
2023-02-28T17:26:56.673Z,100664.34
2023-02-28T17:29:23.423Z,100658.28
2023-02-28T17:31:50.153Z,100667.50
2023-02-28T17:34:19.403Z,100665.41
2023-02-28T17:36:49.790Z,100673.53
2023-02-28T17:39:25.534Z,100673.19
2023-02-28T17:41:53.311Z,100677.34
2023-02-28T17:44:21.130Z,100684.59
2023-02-28T17:46:51.502Z,100684.34
2023-02-28T17:49:19.997Z,100683.16
2023-02-28T17:51:48.538Z,100683.75
2023-02-28T17:54:17.594Z,100691.13
2023-02-28T17:56:45.399Z,100691.75
2023-02-28T17:59:13.385Z,100692.84
2023-02-28T18:01:40.459Z,100692.50
2023-02-28T18:04:07.391Z,100692.34
2023-02-28T18:06:43.259Z,100691.03
2023-02-28T18:09:13.335Z,100692.84
2023-02-28T18:11:43.305Z,100694.53
2023-02-28T18:14:13.823Z,100692.34
2023-02-28T18:19:08.730Z,100696.13
2023-02-28T18:21:36.400Z,100691.16
2023-02-28T18:24:03.248Z,100687.19
2023-02-28T18:26:30.462Z,100688.16
2023-02-28T18:28:58.424Z,100695.09
2023-02-28T18:31:25.456Z,100692.19
2023-02-28T18:33:53.212Z,100691.34
2023-02-28T18:36:21.538Z,100690.63
2023-02-28T18:38:50.825Z,100699.47
2023-02-28T18:41:20.882Z,100695.34
2023-02-28T18:43:48.200Z,100694.84
2023-02-28T18:46:17.111Z,100701.16
2023-02-28T18:48:44.427Z,100709.13
2023-02-28T18:51:21.525Z,100699.69
2023-02-28T18:53:48.833Z,100703.81
2023-02-28T18:56:18.548Z,100702.75
2023-02-28T18:58:45.736Z,100702.97
2023-02-28T19:01:27.077Z,100706.25
2023-02-28T19:03:53.786Z,100701.78
2023-02-28T19:06:20.659Z,100702.88
2023-02-28T19:08:49.360Z,100705.03
2023-02-28T19:11:18.514Z,100701.41
2023-02-28T19:13:47.545Z,100710.81
2023-02-28T19:16:17.273Z,100706.47
2023-02-28T19:18:44.696Z,100707.56
2023-02-28T19:21:14.169Z,100710.34
2023-02-28T19:26:14.324Z,100708.41
2023-02-28T19:31:24.746Z,100704.56
2023-02-28T19:33:53.211Z,100715.53
2023-02-28T19:36:21.661Z,100714.81
2023-02-28T19:38:48.584Z,100720.72
2023-02-28T19:41:17.816Z,100704.69
2023-02-28T19:43:44.724Z,100721.91
2023-02-28T19:46:12.520Z,100716.16
2023-02-28T19:48:39.915Z,100711.44
2023-02-28T19:51:09.944Z,100709.28
2023-02-28T19:53:38.998Z,100706.41
2023-02-28T19:56:06.637Z,100708.06
2023-02-28T19:58:33.998Z,100706.97
2023-02-28T20:01:12.375Z,100714.09
2023-02-28T20:03:39.286Z,100715.63
2023-02-28T20:06:10.037Z,100712.03
2023-02-28T20:08:38.630Z,100717.56
2023-02-28T20:11:11.216Z,100712.50
2023-02-28T20:13:37.911Z,100711.66
2023-02-28T20:16:09.751Z,100706.47
2023-02-28T20:18:38.152Z,100712.84
2023-02-28T20:21:05.218Z,100707.44
2023-02-28T20:23:32.419Z,100709.72
2023-02-28T20:26:03.110Z,100711.03
2023-02-28T20:28:29.804Z,100710.69
2023-02-28T20:30:57.019Z,100715.84
2023-02-28T20:33:24.217Z,100712.69
2023-02-28T20:35:58.371Z,100711.72
2023-02-28T20:38:25.052Z,100709.88
2023-02-28T20:40:56.538Z,100712.31
2023-02-28T20:43:23.876Z,100718.88
2023-02-28T20:45:52.735Z,100720.13
2023-02-28T20:48:19.633Z,100720.63
2023-02-28T20:50:54.574Z,100711.78
2023-02-28T20:53:22.409Z,100718.44
2023-02-28T20:56:01.340Z,100721.31
2023-02-28T20:58:30.647Z,100717.47
2023-02-28T21:01:18.158Z,100722.53
2023-02-28T21:03:47.213Z,100711.56
2023-02-28T21:06:17.586Z,100711.91
2023-02-28T21:08:45.065Z,100709.38
2023-02-28T21:11:14.285Z,100703.78
2023-02-28T21:16:10.234Z,100706.34
2023-02-28T21:18:37.738Z,100715.84
2023-02-28T21:21:09.765Z,100720.78
2023-02-28T21:23:36.565Z,100713.50
2023-02-28T21:26:08.456Z,100713.63
2023-02-28T21:28:36.153Z,100723.16
2023-02-28T21:31:08.575Z,100725.56
2023-02-28T21:33:35.945Z,100721.72
2023-02-28T21:36:04.301Z,100724.09
2023-02-28T21:38:38.661Z,100726.91
2023-02-28T21:41:11.323Z,100726.88
2023-02-28T21:43:39.062Z,100723.28
2023-02-28T21:46:08.686Z,100713.47
2023-02-28T21:48:36.357Z,100718.63
2023-02-28T21:51:08.876Z,100713.31
2023-02-28T21:56:15.240Z,100717.28
2023-02-28T22:01:10.620Z,100718.63
2023-02-28T22:03:37.966Z,100714.47
2023-02-28T22:06:16.607Z,100712.47
2023-02-28T22:08:44.956Z,100722.19
2023-02-28T22:11:12.647Z,100722.00
2023-02-28T22:13:40.521Z,100715.34
2023-02-28T22:16:12.378Z,100722.22
2023-02-28T22:18:40.166Z,100724.72
2023-02-28T22:21:08.079Z,100721.50
2023-02-28T22:23:36.521Z,100723.63
2023-02-28T22:26:06.119Z,100725.06
2023-02-28T22:28:33.502Z,100728.88
2023-02-28T22:31:01.258Z,100728.03
2023-02-28T22:33:28.320Z,100729.88
2023-02-28T22:35:55.222Z,100727.47
2023-02-28T22:38:22.862Z,100731.81
2023-02-28T22:40:49.655Z,100730.34
2023-02-28T22:43:16.756Z,100730.47
2023-02-28T22:45:43.791Z,100718.94
2023-02-28T22:48:11.272Z,100728.66
2023-02-28T22:50:40.924Z,100730.78
2023-02-28T22:53:07.558Z,100726.88
2023-02-28T22:55:34.256Z,100724.28
2023-02-28T22:58:00.987Z,100728.56
2023-02-28T23:00:28.131Z,100719.34
2023-02-28T23:02:54.846Z,100725.50
2023-02-28T23:05:21.510Z,100730.84
2023-02-28T23:07:48.258Z,100724.97
2023-02-28T23:10:17.771Z,100730.53
2023-02-28T23:12:53.917Z,100728.34
2023-02-28T23:15:23.392Z,100725.88
2023-02-28T23:17:50.515Z,100735.50
2023-02-28T23:20:21.114Z,100733.59
2023-02-28T23:22:50.721Z,100738.13
2023-02-28T23:25:19.042Z,100736.91
2023-02-28T23:27:46.410Z,100729.78
2023-02-28T23:30:14.397Z,100728.81
2023-02-28T23:32:43.729Z,100732.75
2023-02-28T23:35:12.217Z,100736.78
2023-02-28T23:37:40.033Z,100735.28
2023-02-28T23:40:10.922Z,100735.84
2023-02-28T23:42:37.962Z,100740.16
2023-02-28T23:45:05.175Z,100732.78
2023-02-28T23:47:32.666Z,100745.25
2023-02-28T23:49:59.386Z,100738.69
2023-02-28T23:52:26.128Z,100737.00
2023-02-28T23:54:52.821Z,100748.63
2023-02-28T23:57:19.875Z,100739.09
2023-02-28T23:59:46.662Z,100743.13
